DGAA/ACC METAR and TAF weather

Enter ICAO airport designator
Station Type Date Time Source
DGAA METAR 2019/06/20 07:00 UTC NOAA

DGAA 200700Z 23009KT 6000 OVC009 26/25 Q1014 NOSIG


Station Type Date Time Source
DGAA Decoded METAR 2019/06/20 07:00 UTC NOAA

Accra, Ghana (DGAA) 05-36N 000-10W 69M
Jun 20, 2019 - 03:00 AM EDT / 2019.06.20 0700 UTC
Wind: from the SW (230 degrees) at 10 MPH (9 KT):0
Visibility: 3 mile(s):0
Sky conditions: overcast
Temperature: 78 F (26 C)
Dew Point: 77 F (25 C)
Relative Humidity: 94%
Pressure (altimeter): 29.94 in. Hg (1014 hPa)
ob: DGAA 200700Z 23009KT 6000 OVC009 26/25 Q1014 NOSIG
cycle: 7

Station Type Date Time Source
DGAA TAF 2019/06/20 06:55 UTC NOAA

TAF DGAA 200500Z 2006/2112 26010KT 9999 BKN015 PROB30
TEMPO 2006/2010 5000 BR
BECMG 2012/2014 18014KT SCT032
BECMG 2018/2020 BKN010
FM210300 24013KT 9999 SCT012

Example: see airport list